nws-alerts: Checking more than four warning/county codes can delay the loading of your pages. You should use a cron job to get the data.
EllijayWeather Historical Data
Daily Summary for March 23, 2020 Units:  English    Metric   Both
Daily Weekly Monthly Yearly
  High: Low: Average:
Temperature: 55.0 °F 49.0 °F 51.9 °F
Dew Point: 54.0 °F 48.0 °F 50.5 °F
Humidity: 99% 88% 95%
Wind Speed: 9mph 0mph 1.5mph
Wind Gust: 9mph - -
Wind- - SE
Pressure: 30.3 in 30.1 in -
Precipitation: 1.410 in    
 
 
Tabular Data for March 23, 2020
Time Temperature Dew Point Pressure Wind Wind Speed Wind Gust Humidity Rainfall Rate (Hourly)
00:04 52.0 °F 49.0 °F 30.3 in ESE 4 mph 5 mph 88% 0.000 in
00:09 52.0 °F 49.0 °F 30.3 in East 5 mph 5 mph 88% 0.000 in
00:14 52.0 °F 49.0 °F 30.3 in ESE 2 mph 4 mph 88% 0.000 in
00:19 52.0 °F 49.0 °F 30.3 in ESE 4 mph 5 mph 89% 0.000 in
00:24 52.0 °F 49.0 °F 30.3 in ESE 2 mph 5 mph 89% 0.000 in
00:29 52.0 °F 49.0 °F 30.3 in ESE 4 mph 4 mph 89% 0.000 in
00:34 52.0 °F 49.0 °F 30.3 in ESE 4 mph 4 mph 89% 0.000 in
00:39 52.0 °F 49.0 °F 30.3 in East 4 mph 5 mph 89% 0.000 in
00:44 52.0 °F 49.0 °F 30.3 in ESE 5 mph 5 mph 89% 0.000 in
00:49 52.0 °F 49.0 °F 30.3 in ESE 2 mph 2 mph 90% 0.000 in
00:54 52.0 °F 49.0 °F 30.3 in ESE 2 mph 2 mph 90% 0.000 in
00:59 52.0 °F 49.0 °F 30.3 in ESE 2 mph 5 mph 90% 0.000 in
01:04 52.0 °F 49.0 °F 30.3 in SE 4 mph 5 mph 89% 0.000 in
01:09 52.0 °F 49.0 °F 30.3 in SE 1 mph 5 mph 89% 0.000 in
01:14 52.0 °F 49.0 °F 30.3 in SE 2 mph 4 mph 89% 0.000 in
01:19 52.0 °F 49.0 °F 30.3 in SE 2 mph 2 mph 90% 0.000 in
01:24 52.0 °F 49.0 °F 30.3 in SE 4 mph 5 mph 90% 0.000 in
01:29 52.0 °F 49.0 °F 30.3 in SSE 2 mph 4 mph 90% 0.000 in
01:34 52.0 °F 49.0 °F 30.3 in SE 5 mph 7 mph 90% 0.000 in
01:39 52.0 °F 49.0 °F 30.3 in SE 5 mph 5 mph 90% 0.000 in
01:44 52.0 °F 49.0 °F 30.3 in SE 4 mph 5 mph 90% 0.000 in
01:49 52.0 °F 49.0 °F 30.3 in ESE 4 mph 6 mph 90% 0.000 in
01:54 52.0 °F 49.0 °F 30.3 in ESE 2 mph 5 mph 90% 0.000 in
01:59 52.0 °F 49.0 °F 30.3 in ESE 4 mph 5 mph 90% 0.000 in
02:04 52.0 °F 49.0 °F 30.3 in SE 4 mph 6 mph 90% 0.000 in
02:09 51.0 °F 49.0 °F 30.3 in SE 5 mph 5 mph 90% 0.000 in
02:14 51.0 °F 48.0 °F 30.3 in ESE 2 mph 5 mph 89% 0.000 in
02:19 51.0 °F 49.0 °F 30.3 in ESE 5 mph 5 mph 90% 0.000 in
02:24 51.0 °F 48.0 °F 30.3 in SE 5 mph 7 mph 89% 0.000 in
02:29 51.0 °F 48.0 °F 30.3 in ESE 4 mph 6 mph 90% 0.000 in
02:34 51.0 °F 48.0 °F 30.3 in ESE 4 mph 5 mph 89% 0.000 in
02:39 51.0 °F 48.0 °F 30.3 in SE 2 mph 4 mph 89% 0.000 in
02:44 51.0 °F 48.0 °F 30.3 in ESE 9 mph 9 mph 89% 0.000 in
02:49 51.0 °F 48.0 °F 30.3 in SE 6 mph 7 mph 89% 0.000 in
02:54 51.0 °F 48.0 °F 30.3 in ESE 4 mph 6 mph 89% 0.000 in
02:59 51.0 °F 48.0 °F 30.3 in ESE 4 mph 4 mph 89% 0.000 in
03:04 51.0 °F 48.0 °F 30.3 in ESE 5 mph 5 mph 89% 0.000 in
03:09 51.0 °F 48.0 °F 30.3 in SE 5 mph 7 mph 89% 0.000 in
03:14 51.0 °F 48.0 °F 30.3 in SE 4 mph 4 mph 89% 0.000 in
03:19 51.0 °F 48.0 °F 30.2 in ESE 4 mph 4 mph 89% 0.000 in
03:24 51.0 °F 48.0 °F 30.2 in ESE 4 mph 5 mph 89% 0.000 in
03:29 51.0 °F 48.0 °F 30.2 in ESE 5 mph 8 mph 89% 0.000 in
03:34 51.0 °F 48.0 °F 30.2 in ESE 4 mph 6 mph 89% 0.000 in
03:39 51.0 °F 48.0 °F 30.2 in ESE 5 mph 5 mph 89% 0.000 in
03:44 51.0 °F 48.0 °F 30.2 in SE 4 mph 6 mph 90% 0.000 in
03:49 51.0 °F 48.0 °F 30.2 in ESE 4 mph 5 mph 90% 0.000 in
03:54 51.0 °F 48.0 °F 30.2 in ESE 5 mph 7 mph 90% 0.000 in
03:59 51.0 °F 48.0 °F 30.2 in SE 2 mph 7 mph 90% 0.000 in
04:04 51.0 °F 48.0 °F 30.2 in SE 2 mph 7 mph 90% 0.000 in
04:09 51.0 °F 48.0 °F 30.2 in SSE 2 mph 6 mph 90% 0.000 in
04:14 51.0 °F 48.0 °F 30.2 in SE 2 mph 5 mph 90% 0.000 in
04:19 51.0 °F 48.0 °F 30.2 in SSE 6 mph 7 mph 90% 0.000 in
04:24 51.0 °F 48.0 °F 30.2 in ESE 5 mph 6 mph 90% 0.000 in
04:29 51.0 °F 48.0 °F 30.2 in ESE 6 mph 6 mph 90% 0.000 in
04:34 51.0 °F 48.0 °F 30.2 in ESE 5 mph 6 mph 90% 0.000 in
04:39 51.0 °F 48.0 °F 30.2 in ESE 4 mph 6 mph 90% 0.000 in
04:44 51.0 °F 48.0 °F 30.2 in SE 5 mph 8 mph 90% 0.000 in
04:49 51.0 °F 48.0 °F 30.2 in ESE 4 mph 8 mph 90% 0.000 in
04:54 51.0 °F 48.0 °F 30.2 in ESE 2 mph 4 mph 90% 0.000 in
04:59 51.0 °F 48.0 °F 30.2 in ESE 4 mph 5 mph 90% 0.000 in
05:04 51.0 °F 48.0 °F 30.2 in SE 6 mph 7 mph 89% 0.000 in
05:09 51.0 °F 48.0 °F 30.2 in SE 4 mph 4 mph 90% 0.000 in
05:14 51.0 °F 48.0 °F 30.2 in SE 4 mph 5 mph 89% 0.000 in
05:19 51.0 °F 48.0 °F 30.2 in SE 4 mph 5 mph 89% 0.000 in
05:24 51.0 °F 48.0 °F 30.2 in SE 2 mph 4 mph 89% 0.000 in
05:29 51.0 °F 48.0 °F 30.2 in SE 4 mph 5 mph 89% 0.000 in
05:34 51.0 °F 48.0 °F 30.2 in SE 2 mph 4 mph 90% 0.000 in
05:39 51.0 °F 48.0 °F 30.2 in SE 2 mph 4 mph 90% 0.000 in
05:44 51.0 °F 48.0 °F 30.2 in ESE 4 mph 5 mph 91% 0.000 in
05:49 50.0 °F 48.0 °F 30.2 in East 3 mph 5 mph 91% 0.000 in
05:54 50.0 °F 48.0 °F 30.2 in ESE 6 mph 6 mph 91% 0.000 in
05:59 50.0 °F 48.0 °F 30.2 in SE 2 mph 4 mph 91% 0.000 in
06:04 50.0 °F 48.0 °F 30.2 in SE 4 mph 4 mph 91% 0.000 in
06:09 50.0 °F 48.0 °F 30.2 in ESE 5 mph 5 mph 91% 0.000 in
06:14 50.0 °F 48.0 °F 30.2 in SE 4 mph 6 mph 91% 0.000 in
06:19 50.0 °F 48.0 °F 30.2 in SE 2 mph 4 mph 91% 0.000 in
06:24 50.0 °F 48.0 °F 30.2 in SE 1 mph 2 mph 92% 0.000 in
06:29 50.0 °F 48.0 °F 30.2 in ESE 4 mph 5 mph 93% 0.010 in
06:34 50.0 °F 48.0 °F 30.2 in ESE 2 mph 4 mph 93% 0.010 in
06:39 50.0 °F 48.0 °F 30.2 in ESE 1 mph 4 mph 94% 0.020 in
06:44 50.0 °F 48.0 °F 30.2 in ESE 2 mph 4 mph 94% 0.040 in
06:49 50.0 °F 48.0 °F 30.2 in Calm   2 mph 95% 0.050 in
06:54 50.0 °F 48.0 °F 30.2 in SE 1 mph 2 mph 95% 0.060 in
06:59 49.0 °F 48.0 °F 30.2 in SE 2 mph 5 mph 95% 0.080 in
07:04 49.0 °F 48.0 °F 30.2 in East 4 mph 5 mph 95% 0.100 in
07:09 49.0 °F 48.0 °F 30.2 in East 2 mph 2 mph 95% 0.120 in
07:14 49.0 °F 48.0 °F 30.2 in SSW 2 mph 3 mph 96% 0.140 in
07:19 49.0 °F 48.0 °F 30.2 in SSE 4 mph 5 mph 96% 0.170 in
07:24 49.0 °F 48.0 °F 30.2 in SE 5 mph 6 mph 96% 0.200 in
07:29 49.0 °F 48.0 °F 30.2 in Calm   6 mph 96% 0.230 in
07:34 49.0 °F 48.0 °F 30.2 in SE 2 mph 4 mph 96% 0.270 in
07:39 49.0 °F 48.0 °F 30.2 in Calm     96% 0.300 in
07:44 49.0 °F 48.0 °F 30.2 in Calm     96% 0.360 in
07:49 49.0 °F 48.0 °F 30.3 in SSW 3 mph 5 mph 96% 0.420 in
07:54 49.0 °F 48.0 °F 30.3 in NW 5 mph 6 mph 97% 0.480 in
07:59 49.0 °F 48.0 °F 30.3 in NW 2 mph 3 mph 96% 0.530 in
08:04 49.0 °F 48.0 °F 30.2 in North 3 mph 3 mph 97% 0.520 in
08:09 49.0 °F 48.0 °F 30.2 in ENE 1 mph 3 mph 97% 0.520 in
08:14 49.0 °F 48.0 °F 30.2 in ENE 1 mph 2 mph 96% 0.500 in
08:19 49.0 °F 48.0 °F 30.2 in Calm   1 mph 96% 0.490 in
08:24 49.0 °F 48.0 °F 30.2 in Calm     97% 0.460 in
08:29 49.0 °F 48.0 °F 30.2 in Calm   2 mph 97% 0.430 in
08:34 49.0 °F 48.0 °F 30.2 in ESE 4 mph 4 mph 97% 0.410 in
08:39 49.0 °F 48.0 °F 30.2 in ESE 5 mph 6 mph 97% 0.380 in
08:44 49.0 °F 48.0 °F 30.2 in SE 5 mph 8 mph 96% 0.350 in
08:49 49.0 °F 48.0 °F 30.2 in SE 1 mph 4 mph 96% 0.290 in
08:54 49.0 °F 48.0 °F 30.2 in SE 5 mph 5 mph 97% 0.230 in
08:59 49.0 °F 48.0 °F 30.3 in WNW 3 mph 5 mph 97% 0.170 in
09:04 49.0 °F 48.0 °F 30.3 in NW 1 mph 3 mph 97% 0.150 in
09:09 49.0 °F 48.0 °F 30.2 in NW 1 mph 1 mph 97% 0.150 in
09:14 49.0 °F 48.0 °F 30.2 in NW 1 mph 3 mph 97% 0.160 in
09:19 49.0 °F 48.0 °F 30.2 in Calm   3 mph 97% 0.160 in
09:24 49.0 °F 48.0 °F 30.2 in NNE 2 mph 3 mph 97% 0.160 in
09:29 49.0 °F 48.0 °F 30.2 in ESE 4 mph 5 mph 97% 0.180 in
09:34 49.0 °F 48.0 °F 30.2 in SE 6 mph 6 mph 96% 0.210 in
09:39 49.0 °F 48.0 °F 30.2 in ESE 4 mph 5 mph 96% 0.240 in
09:44 49.0 °F 48.0 °F 30.2 in SE 4 mph 5 mph 96% 0.250 in
09:49 49.0 °F 48.0 °F 30.2 in ESE 4 mph 5 mph 96% 0.250 in
09:54 49.0 °F 48.0 °F 30.2 in ESE 4 mph 5 mph 96% 0.270 in
09:59 49.0 °F 48.0 °F 30.2 in ESE 6 mph 6 mph 96% 0.270 in
10:04 49.0 °F 48.0 °F 30.2 in ESE 4 mph 6 mph 96% 0.250 in
10:09 49.0 °F 48.0 °F 30.2 in ESE 1 mph 4 mph 96% 0.240 in
10:14 49.0 °F 48.0 °F 30.2 in ESE 1 mph 2 mph 97% 0.220 in
10:19 49.0 °F 48.0 °F 30.2 in Calm   2 mph 97% 0.210 in
10:24 49.0 °F 48.0 °F 30.2 in Calm   1 mph 97% 0.210 in
10:29 49.0 °F 48.0 °F 30.2 in Calm   1 mph 97% 0.190 in
10:34 49.0 °F 48.0 °F 30.2 in ESE 1 mph 2 mph 97% 0.170 in
10:39 49.0 °F 48.0 °F 30.2 in Calm   1 mph 97% 0.130 in
10:44 49.0 °F 48.0 °F 30.2 in Calm     97% 0.110 in
10:49 49.0 °F 48.0 °F 30.2 in Calm     97% 0.110 in
10:54 50.0 °F 49.0 °F 30.2 in Calm     97% 0.100 in
10:59 50.0 °F 49.0 °F 30.2 in Calm     97% 0.090 in
11:04 50.0 °F 49.0 °F 30.2 in ESE 2 mph 4 mph 97% 0.090 in
11:09 50.0 °F 49.0 °F 30.2 in Calm     97% 0.090 in
11:14 50.0 °F 49.0 °F 30.2 in Calm   1 mph 97% 0.100 in
11:19 50.0 °F 49.0 °F 30.2 in Calm     97% 0.110 in
11:24 50.0 °F 49.0 °F 30.2 in Calm     97% 0.110 in
11:29 50.0 °F 49.0 °F 30.2 in Calm     98% 0.120 in
11:34 50.0 °F 49.0 °F 30.2 in Calm     98% 0.110 in
11:39 50.0 °F 49.0 °F 30.2 in Calm   2 mph 98% 0.100 in
11:44 50.0 °F 49.0 °F 30.2 in SSE 5 mph 5 mph 98% 0.110 in
11:49 50.0 °F 49.0 °F 30.2 in SSE 2 mph 2 mph 97% 0.110 in
11:54 50.0 °F 49.0 °F 30.2 in Calm   1 mph 97% 0.120 in
11:59 50.0 °F 49.0 °F 30.2 in Calm     97% 0.110 in
12:04 50.0 °F 49.0 °F 30.2 in Calm   1 mph 97% 0.100 in
12:09 50.0 °F 49.0 °F 30.2 in SSE 1 mph 4 mph 97% 0.100 in
12:14 50.0 °F 49.0 °F 30.2 in Calm   1 mph 97% 0.100 in
12:19 50.0 °F 49.0 °F 30.2 in Calm     97% 0.100 in
12:24 50.0 °F 49.0 °F 30.2 in SSE 1 mph 2 mph 97% 0.110 in
12:29 50.0 °F 49.0 °F 30.2 in Calm     97% 0.110 in
12:34 50.0 °F 49.0 °F 30.2 in Calm     97% 0.110 in
12:39 50.0 °F 49.0 °F 30.2 in Calm     97% 0.120 in
12:44 50.0 °F 49.0 °F 30.2 in Calm     97% 0.110 in
12:49 50.0 °F 49.0 °F 30.2 in SSE 2 mph 2 mph 97% 0.100 in
12:54 50.0 °F 50.0 °F 30.2 in SSE 4 mph 4 mph 98% 0.080 in
12:59 50.0 °F 50.0 °F 30.2 in Calm   4 mph 98% 0.080 in
13:04 50.0 °F 50.0 °F 30.2 in Calm     98% 0.090 in
13:09 50.0 °F 50.0 °F 30.2 in Calm     97% 0.090 in
13:14 50.0 °F 50.0 °F 30.2 in Calm     98% 0.090 in
13:19 50.0 °F 50.0 °F 30.2 in Calm     98% 0.080 in
13:24 51.0 °F 50.0 °F 30.2 in Calm     98% 0.080 in
13:29 51.0 °F 50.0 °F 30.2 in Calm     98% 0.070 in
13:34 51.0 °F 50.0 °F 30.2 in Calm     98% 0.060 in
13:39 51.0 °F 50.0 °F 30.2 in Calm     98% 0.060 in
13:44 51.0 °F 51.0 °F 30.2 in Calm     98% 0.050 in
13:49 51.0 °F 51.0 °F 30.2 in Calm     98% 0.050 in
13:54 51.0 °F 51.0 °F 30.2 in Calm     98% 0.040 in
13:59 51.0 °F 51.0 °F 30.2 in Calm     98% 0.040 in
14:04 51.0 °F 50.0 °F 30.2 in Calm     97% 0.030 in
14:09 51.0 °F 50.0 °F 30.2 in Calm     97% 0.030 in
14:14 51.0 °F 51.0 °F 30.2 in Calm     98% 0.040 in
14:19 52.0 °F 51.0 °F 30.2 in Calm     98% 0.040 in
14:24 52.0 °F 51.0 °F 30.2 in Calm     98% 0.040 in
14:29 52.0 °F 51.0 °F 30.2 in Calm     98% 0.040 in
14:34 52.0 °F 51.0 °F 30.2 in Calm     98% 0.050 in
14:39 52.0 °F 52.0 °F 30.2 in Calm     98% 0.060 in
14:44 52.0 °F 52.0 °F 30.2 in Calm     98% 0.060 in
14:49 52.0 °F 52.0 °F 30.2 in Calm     98% 0.060 in
14:54 53.0 °F 52.0 °F 30.2 in Calm     98% 0.060 in
14:59 53.0 °F 52.0 °F 30.2 in Calm     98% 0.060 in
15:04 53.0 °F 52.0 °F 30.2 in Calm     98% 0.060 in
15:09 53.0 °F 52.0 °F 30.2 in Calm     98% 0.050 in
15:14 53.0 °F 52.0 °F 30.2 in Calm     97% 0.040 in
15:19 53.0 °F 52.0 °F 30.2 in Calm     98% 0.040 in
15:24 53.0 °F 52.0 °F 30.2 in Calm     98% 0.030 in
15:29 53.0 °F 52.0 °F 30.2 in Calm     98% 0.020 in
15:34 53.0 °F 52.0 °F 30.2 in Calm     98% 0.020 in
15:39 53.0 °F 52.0 °F 30.2 in Calm     98% 0.020 in
15:44 53.0 °F 53.0 °F 30.2 in Calm     98% 0.010 in
15:49 53.0 °F 53.0 °F 30.2 in Calm     98% 0.010 in
15:54 53.0 °F 53.0 °F 30.2 in Calm     98% 0.010 in
15:59 53.0 °F 53.0 °F 30.2 in Calm     98% 0.010 in
16:04 53.0 °F 53.0 °F 30.2 in Calm     98% 0.010 in
16:09 53.0 °F 53.0 °F 30.1 in Calm     98% 0.010 in
16:14 53.0 °F 53.0 °F 30.1 in Calm     98% 0.010 in
16:19 53.0 °F 53.0 °F 30.1 in Calm     98% 0.010 in
16:24 53.0 °F 53.0 °F 30.1 in Calm     98% 0.010 in
16:29 53.0 °F 53.0 °F 30.1 in Calm     98% 0.010 in
16:34 53.0 °F 53.0 °F 30.1 in Calm     98% 0.010 in
16:39 53.0 °F 53.0 °F 30.1 in Calm     98% 0.010 in
16:44 53.0 °F 53.0 °F 30.1 in Calm     98% 0.010 in
16:49 53.0 °F 53.0 °F 30.1 in Calm     98% 0.010 in
16:54 53.0 °F 53.0 °F 30.1 in Calm     98% 0.010 in
16:59 53.0 °F 53.0 °F 30.1 in Calm     98% 0.010 in
17:04 53.0 °F 53.0 °F 30.1 in Calm     98% 0.010 in
17:09 53.0 °F 53.0 °F 30.1 in Calm     98% 0.010 in
17:14 54.0 °F 53.0 °F 30.1 in Calm     98% 0.030 in
17:19 54.0 °F 53.0 °F 30.1 in Calm     98% 0.030 in
17:24 54.0 °F 53.0 °F 30.1 in Calm     98% 0.030 in
17:29 54.0 °F 53.0 °F 30.1 in Calm     98% 0.030 in
17:34 54.0 °F 53.0 °F 30.1 in Calm     98% 0.030 in
17:39 54.0 °F 53.0 °F 30.1 in Calm     98% 0.030 in
17:44 54.0 °F 53.0 °F 30.1 in Calm     98% 0.020 in
17:49 54.0 °F 53.0 °F 30.1 in Calm     98% 0.030 in
17:54 54.0 °F 53.0 °F 30.1 in Calm     98% 0.030 in
17:59 54.0 °F 54.0 °F 30.1 in Calm     98% 0.030 in
18:04 54.0 °F 54.0 °F 30.1 in Calm     98% 0.030 in
18:09 54.0 °F 54.0 °F 30.1 in Calm     98% 0.030 in
18:14 54.0 °F 54.0 °F 30.1 in Calm     98% 0.020 in
18:19 54.0 °F 54.0 °F 30.1 in Calm     98% 0.010 in
18:24 54.0 °F 54.0 °F 30.1 in Calm     98% 0.010 in
18:29 54.0 °F 54.0 °F 30.1 in Calm     98% 0.010 in
18:34 54.0 °F 54.0 °F 30.1 in Calm     98% 0.010 in
18:39 55.0 °F 54.0 °F 30.1 in Calm     98% 0.010 in
18:44 55.0 °F 54.0 °F 30.2 in Calm     98% 0.010 in
18:49 55.0 °F 54.0 °F 30.2 in Calm     98% 0.010 in
18:54 55.0 °F 54.0 °F 30.1 in Calm     98% 0.000 in
18:59 55.0 °F 54.0 °F 30.1 in Calm     98% 0.000 in
19:04 55.0 °F 54.0 °F 30.1 in Calm     98% 0.000 in
19:09 55.0 °F 54.0 °F 30.1 in Calm     98% 0.000 in
19:14 55.0 °F 54.0 °F 30.1 in Calm     98% 0.000 in
19:19 55.0 °F 54.0 °F 30.2 in Calm     98% 0.000 in
19:24 55.0 °F 54.0 °F 30.1 in Calm   1 mph 98% 0.000 in
19:29 55.0 °F 54.0 °F 30.2 in SSE 1 mph 2 mph 98% 0.000 in
19:34 55.0 °F 54.0 °F 30.1 in Calm     98% 0.000 in
19:39 55.0 °F 54.0 °F 30.1 in Calm     98% 0.000 in
19:44 55.0 °F 54.0 °F 30.1 in Calm     98% 0.000 in
19:49 54.0 °F 54.0 °F 30.1 in Calm     98% 0.000 in
19:54 54.0 °F 54.0 °F 30.2 in Calm     98% 0.000 in
19:59 54.0 °F 54.0 °F 30.2 in Calm     98% 0.000 in
20:04 54.0 °F 54.0 °F 30.1 in Calm     98% 0.010 in
20:09 54.0 °F 54.0 °F 30.1 in Calm     98% 0.010 in
20:14 54.0 °F 54.0 °F 30.1 in Calm     98% 0.010 in
20:19 54.0 °F 54.0 °F 30.1 in SSE 2 mph 2 mph 98% 0.010 in
20:24 55.0 °F 54.0 °F 30.1 in Calm     98% 0.010 in
20:29 54.0 °F 54.0 °F 30.1 in Calm     98% 0.010 in
20:34 55.0 °F 54.0 °F 30.2 in Calm     98% 0.010 in
20:39 54.0 °F 54.0 °F 30.2 in Calm     98% 0.010 in
20:44 54.0 °F 54.0 °F 30.2 in Calm     98% 0.010 in
20:49 54.0 °F 54.0 °F 30.2 in Calm     98% 0.010 in
20:54 54.0 °F 54.0 °F 30.2 in Calm     98% 0.010 in
20:59 54.0 °F 54.0 °F 30.2 in Calm     98% 0.010 in
21:04 54.0 °F 54.0 °F 30.2 in Calm     98% 0.010 in
21:09 55.0 °F 54.0 °F 30.2 in Calm     98% 0.000 in
21:14 55.0 °F 54.0 °F 30.2 in Calm     99% 0.000 in
21:19 55.0 °F 54.0 °F 30.2 in Calm     99% 0.000 in
21:24 55.0 °F 54.0 °F 30.2 in Calm     98% 0.000 in
21:29 55.0 °F 54.0 °F 30.2 in Calm     98% 0.000 in
21:34 55.0 °F 54.0 °F 30.2 in Calm     98% 0.000 in
21:39 55.0 °F 54.0 °F 30.2 in Calm     98% 0.000 in
21:44 55.0 °F 54.0 °F 30.2 in Calm     99% 0.000 in
21:49 55.0 °F 54.0 °F 30.2 in Calm     99% 0.000 in
21:54 55.0 °F 54.0 °F 30.2 in Calm     99% 0.000 in
21:59 55.0 °F 54.0 °F 30.2 in Calm     99% 0.000 in
22:04 55.0 °F 54.0 °F 30.2 in Calm     99% 0.000 in
22:09 55.0 °F 54.0 °F 30.2 in Calm     98% 0.000 in
22:14 55.0 °F 54.0 °F 30.2 in Calm     99% 0.000 in
22:19 55.0 °F 54.0 °F 30.2 in Calm     99% 0.000 in
22:24 55.0 °F 54.0 °F 30.2 in Calm     99% 0.000 in
22:29 55.0 °F 54.0 °F 30.2 in Calm     99% 0.000 in
22:34 55.0 °F 54.0 °F 30.2 in Calm     99% 0.000 in
22:39 55.0 °F 54.0 °F 30.1 in Calm     99% 0.000 in
22:44 55.0 °F 54.0 °F 30.2 in Calm     99% 0.000 in
22:49 55.0 °F 54.0 °F 30.2 in Calm     99% 0.000 in
22:54 55.0 °F 54.0 °F 30.2 in Calm     99% 0.000 in
22:59 55.0 °F 54.0 °F 30.2 in Calm     99% 0.000 in
23:04 55.0 °F 54.0 °F 30.2 in Calm     99% 0.000 in
23:09 55.0 °F 54.0 °F 30.2 in Calm     99% 0.000 in
23:14 55.0 °F 54.0 °F 30.2 in Calm     99% 0.000 in
23:19 55.0 °F 54.0 °F 30.2 in Calm     99% 0.000 in
23:24 55.0 °F 54.0 °F 30.1 in Calm     99% 0.000 in
23:29 55.0 °F 54.0 °F 30.1 in Calm     99% 0.000 in
23:34 55.0 °F 54.0 °F 30.1 in Calm     99% 0.000 in
23:39 55.0 °F 54.0 °F 30.1 in Calm     99% 0.000 in
23:44 55.0 °F 54.0 °F 30.1 in Calm     99% 0.000 in
23:49 55.0 °F 54.0 °F 30.1 in Calm     99% 0.000 in
23:54 55.0 °F 54.0 °F 30.1 in Calm     99% 0.000 in
23:59 55.0 °F 54.0 °F 30.1 in Calm     99% 0.000 in
East Ellijay Weather
Compliments of Weather Underground - 2 mb